sensor_id;sensor_type;location;lat;lon;timestamp;P1;durP1;ratioP1;P2;durP2;ratioP2
74935;SDS011;63501;55.570;37.488;2022-12-10T00:02:11;9.15;;;3.08;;
74935;SDS011;63501;55.570;37.488;2022-12-10T00:04:36;9.95;;;3.10;;
74935;SDS011;63501;55.570;37.488;2022-12-10T00:07:02;5.28;;;2.03;;
74935;SDS011;63501;55.570;37.488;2022-12-10T00:09:28;7.85;;;2.35;;
74935;SDS011;63501;55.570;37.488;2022-12-10T00:11:53;5.53;;;1.73;;
74935;SDS011;63501;55.570;37.488;2022-12-10T00:14:19;3.40;;;1.52;;
74935;SDS011;63501;55.570;37.488;2022-12-10T00:16:44;8.35;;;2.65;;
74935;SDS011;63501;55.570;37.488;2022-12-10T00:19:10;3.47;;;1.02;;
74935;SDS011;63501;55.570;37.488;2022-12-10T00:21:36;7.97;;;2.90;;
74935;SDS011;63501;55.570;37.488;2022-12-10T00:24:02;9.60;;;3.58;;
74935;SDS011;63501;55.570;37.488;2022-12-10T00:26:36;17.95;;;5.97;;
74935;SDS011;63501;55.570;37.488;2022-12-10T00:29:04;15.30;;;4.18;;
74935;SDS011;63501;55.570;37.488;2022-12-10T00:31:32;12.18;;;3.53;;
74935;SDS011;63501;55.570;37.488;2022-12-10T00:34:00;12.30;;;4.70;;
74935;SDS011;63501;55.570;37.488;2022-12-10T00:36:29;10.77;;;3.95;;
74935;SDS011;63501;55.570;37.488;2022-12-10T00:39:10;12.98;;;3.53;;
74935;SDS011;63501;55.570;37.488;2022-12-10T00:41:37;9.95;;;3.65;;
74935;SDS011;63501;55.570;37.488;2022-12-10T00:44:03;10.48;;;3.78;;
74935;SDS011;63501;55.570;37.488;2022-12-10T00:46:29;11.35;;;4.20;;
74935;SDS011;63501;55.570;37.488;2022-12-10T00:48:54;19.13;;;5.97;;
74935;SDS011;63501;55.570;37.488;2022-12-10T00:51:21;15.52;;;5.45;;
74935;SDS011;63501;55.570;37.488;2022-12-10T00:53:49;11.57;;;3.47;;
74935;SDS011;63501;55.570;37.488;2022-12-10T00:56:17;12.60;;;4.38;;
74935;SDS011;63501;55.570;37.488;2022-12-10T00:58:44;10.23;;;3.25;;
74935;SDS011;63501;55.570;37.488;2022-12-10T01:01:16;12.65;;;4.38;;
74935;SDS011;63501;55.570;37.488;2022-12-10T01:03:45;21.17;;;6.20;;
74935;SDS011;63501;55.570;37.488;2022-12-10T01:08:44;18.13;;;5.32;;
74935;SDS011;63501;55.570;37.488;2022-12-10T01:11:11;10.57;;;3.17;;
74935;SDS011;63501;55.570;37.488;2022-12-10T01:13:38;13.77;;;4.80;;
74935;SDS011;63501;55.570;37.488;2022-12-10T01:16:06;19.25;;;6.45;;
74935;SDS011;63501;55.570;37.488;2022-12-10T01:18:33;20.95;;;6.85;;
74935;SDS011;63501;55.570;37.488;2022-12-10T01:21:00;16.83;;;5.63;;
74935;SDS011;63501;55.570;37.488;2022-12-10T01:23:33;22.65;;;6.95;;
74935;SDS011;63501;55.570;37.488;2022-12-10T01:26:01;26.77;;;6.80;;
74935;SDS011;63501;55.570;37.488;2022-12-10T01:28:29;20.73;;;5.30;;
74935;SDS011;63501;55.570;37.488;2022-12-10T01:30:58;16.83;;;6.00;;
74935;SDS011;63501;55.570;37.488;2022-12-10T01:33:25;20.95;;;5.43;;
74935;SDS011;63501;55.570;37.488;2022-12-10T01:35:51;18.00;;;5.65;;
74935;SDS011;63501;55.570;37.488;2022-12-10T01:38:16;16.55;;;4.85;;
74935;SDS011;63501;55.570;37.488;2022-12-10T01:40:42;19.05;;;6.00;;
74935;SDS011;63501;55.570;37.488;2022-12-10T01:43:11;22.67;;;7.88;;
74935;SDS011;63501;55.570;37.488;2022-12-10T01:45:38;15.98;;;5.60;;
74935;SDS011;63501;55.570;37.488;2022-12-10T01:48:04;23.08;;;7.88;;
74935;SDS011;63501;55.570;37.488;2022-12-10T01:50:30;17.95;;;5.68;;
74935;SDS011;63501;55.570;37.488;2022-12-10T01:52:55;17.13;;;6.40;;
74935;SDS011;63501;55.570;37.488;2022-12-10T02:00:34;21.23;;;6.10;;
74935;SDS011;63501;55.570;37.488;2022-12-10T02:03:13;17.38;;;5.68;;
74935;SDS011;63501;55.570;37.488;2022-12-10T02:05:54;23.40;;;7.10;;
74935;SDS011;63501;55.570;37.488;2022-12-10T02:11:33;21.98;;;5.93;;
74935;SDS011;63501;55.570;37.488;2022-12-10T02:14:15;25.75;;;7.82;;
74935;SDS011;63501;55.570;37.488;2022-12-10T02:16:52;20.40;;;6.00;;
74935;SDS011;63501;55.570;37.488;2022-12-10T02:21:48;21.65;;;6.60;;
74935;SDS011;63501;55.570;37.488;2022-12-10T02:24:20;12.18;;;4.50;;
74935;SDS011;63501;55.570;37.488;2022-12-10T02:29:26;20.15;;;6.53;;
74935;SDS011;63501;55.570;37.488;2022-12-10T02:34:41;27.00;;;8.93;;
74935;SDS011;63501;55.570;37.488;2022-12-10T02:37:10;18.38;;;5.88;;
74935;SDS011;63501;55.570;37.488;2022-12-10T02:39:44;29.88;;;9.05;;
74935;SDS011;63501;55.570;37.488;2022-12-10T02:42:13;25.00;;;7.93;;
74935;SDS011;63501;55.570;37.488;2022-12-10T02:44:42;21.45;;;6.75;;
74935;SDS011;63501;55.570;37.488;2022-12-10T02:47:10;16.27;;;5.85;;
74935;SDS011;63501;55.570;37.488;2022-12-10T02:49:37;19.70;;;6.85;;
74935;SDS011;63501;55.570;37.488;2022-12-10T02:52:06;21.25;;;6.97;;
74935;SDS011;63501;55.570;37.488;2022-12-10T03:05:35;18.33;;;6.47;;
74935;SDS011;63501;55.570;37.488;2022-12-10T03:08:05;18.58;;;5.25;;
74935;SDS011;63501;55.570;37.488;2022-12-10T03:13:38;23.65;;;7.07;;
74935;SDS011;63501;55.570;37.488;2022-12-10T03:16:19;19.98;;;7.53;;
74935;SDS011;63501;55.570;37.488;2022-12-10T03:18:47;24.70;;;7.95;;
74935;SDS011;63501;55.570;37.488;2022-12-10T03:21:17;18.73;;;6.22;;
74935;SDS011;63501;55.570;37.488;2022-12-10T03:23:44;24.75;;;9.07;;
74935;SDS011;63501;55.570;37.488;2022-12-10T03:26:12;22.38;;;6.88;;
74935;SDS011;63501;55.570;37.488;2022-12-10T03:28:40;21.52;;;5.90;;
74935;SDS011;63501;55.570;37.488;2022-12-10T03:31:11;20.90;;;7.05;;
74935;SDS011;63501;55.570;37.488;2022-12-10T03:33:39;20.30;;;5.75;;
74935;SDS011;63501;55.570;37.488;2022-12-10T03:36:06;32.42;;;9.73;;
74935;SDS011;63501;55.570;37.488;2022-12-10T03:38:33;25.70;;;8.40;;
74935;SDS011;63501;55.570;37.488;2022-12-10T03:41:00;22.85;;;8.02;;
74935;SDS011;63501;55.570;37.488;2022-12-10T03:43:25;18.42;;;6.88;;
74935;SDS011;63501;55.570;37.488;2022-12-10T03:45:51;23.35;;;7.28;;
74935;SDS011;63501;55.570;37.488;2022-12-10T03:48:17;24.58;;;7.03;;
74935;SDS011;63501;55.570;37.488;2022-12-10T03:50:42;16.60;;;5.68;;
74935;SDS011;63501;55.570;37.488;2022-12-10T03:53:08;20.27;;;6.97;;
74935;SDS011;63501;55.570;37.488;2022-12-10T03:55:33;33.03;;;9.23;;
74935;SDS011;63501;55.570;37.488;2022-12-10T03:57:59;23.27;;;7.93;;
74935;SDS011;63501;55.570;37.488;2022-12-10T04:00:25;30.35;;;8.95;;
74935;SDS011;63501;55.570;37.488;2022-12-10T04:02:50;25.10;;;8.70;;
74935;SDS011;63501;55.570;37.488;2022-12-10T04:05:16;24.05;;;7.15;;
74935;SDS011;63501;55.570;37.488;2022-12-10T04:07:42;20.02;;;7.68;;
74935;SDS011;63501;55.570;37.488;2022-12-10T04:10:07;18.35;;;6.88;;
74935;SDS011;63501;55.570;37.488;2022-12-10T04:12:33;19.17;;;6.97;;
74935;SDS011;63501;55.570;37.488;2022-12-10T04:14:59;18.92;;;6.57;;
74935;SDS011;63501;55.570;37.488;2022-12-10T04:17:43;20.80;;;6.85;;
74935;SDS011;63501;55.570;37.488;2022-12-10T04:20:09;16.10;;;5.75;;
74935;SDS011;63501;55.570;37.488;2022-12-10T04:22:55;19.75;;;6.45;;
74935;SDS011;63501;55.570;37.488;2022-12-10T04:25:39;17.40;;;5.60;;
74935;SDS011;63501;55.570;37.488;2022-12-10T04:28:23;15.60;;;5.93;;
74935;SDS011;63501;55.570;37.488;2022-12-10T04:30:49;21.35;;;6.63;;
74935;SDS011;63501;55.570;37.488;2022-12-10T04:33:15;16.35;;;6.03;;
74935;SDS011;63501;55.570;37.488;2022-12-10T04:35:40;27.00;;;8.38;;
74935;SDS011;63501;55.570;37.488;2022-12-10T04:38:06;21.80;;;7.28;;
74935;SDS011;63501;55.570;37.488;2022-12-10T04:40:31;17.50;;;5.22;;
74935;SDS011;63501;55.570;37.488;2022-12-10T04:42:57;20.73;;;7.65;;
74935;SDS011;63501;55.570;37.488;2022-12-10T04:45:22;17.10;;;6.07;;
74935;SDS011;63501;55.570;37.488;2022-12-10T04:47:48;17.10;;;5.85;;
74935;SDS011;63501;55.570;37.488;2022-12-10T04:50:13;15.88;;;5.80;;
74935;SDS011;63501;55.570;37.488;2022-12-10T04:52:39;20.48;;;5.43;;
74935;SDS011;63501;55.570;37.488;2022-12-10T04:55:04;20.42;;;6.90;;
74935;SDS011;63501;55.570;37.488;2022-12-10T04:57:30;19.52;;;6.68;;
74935;SDS011;63501;55.570;37.488;2022-12-10T04:59:56;11.65;;;4.85;;
74935;SDS011;63501;55.570;37.488;2022-12-10T05:02:21;14.75;;;4.47;;
74935;SDS011;63501;55.570;37.488;2022-12-10T05:04:50;14.82;;;4.97;;
74935;SDS011;63501;55.570;37.488;2022-12-10T05:07:16;24.60;;;6.90;;
74935;SDS011;63501;55.570;37.488;2022-12-10T05:09:41;17.58;;;6.40;;
74935;SDS011;63501;55.570;37.488;2022-12-10T05:12:07;15.35;;;5.75;;
74935;SDS011;63501;55.570;37.488;2022-12-10T05:14:32;13.85;;;5.15;;
74935;SDS011;63501;55.570;37.488;2022-12-10T05:16:58;21.00;;;7.20;;
74935;SDS011;63501;55.570;37.488;2022-12-10T05:19:23;25.00;;;7.78;;
74935;SDS011;63501;55.570;37.488;2022-12-10T05:21:52;20.95;;;6.45;;
74935;SDS011;63501;55.570;37.488;2022-12-10T05:24:36;25.33;;;7.63;;
74935;SDS011;63501;55.570;37.488;2022-12-10T05:27:02;16.65;;;5.88;;
74935;SDS011;63501;55.570;37.488;2022-12-10T05:29:28;18.88;;;6.35;;
74935;SDS011;63501;55.570;37.488;2022-12-10T05:31:53;18.42;;;7.60;;
74935;SDS011;63501;55.570;37.488;2022-12-10T05:34:19;18.13;;;5.80;;
74935;SDS011;63501;55.570;37.488;2022-12-10T05:36:45;17.23;;;6.35;;
74935;SDS011;63501;55.570;37.488;2022-12-10T05:39:10;16.27;;;5.65;;
74935;SDS011;63501;55.570;37.488;2022-12-10T05:41:37;12.75;;;5.30;;
74935;SDS011;63501;55.570;37.488;2022-12-10T05:44:05;14.02;;;5.72;;
74935;SDS011;63501;55.570;37.488;2022-12-10T05:46:33;16.95;;;5.40;;
74935;SDS011;63501;55.570;37.488;2022-12-10T05:49:00;16.88;;;6.28;;
74935;SDS011;63501;55.570;37.488;2022-12-10T05:51:28;15.38;;;5.72;;
74935;SDS011;63501;55.570;37.488;2022-12-10T05:53:56;20.48;;;7.32;;
74935;SDS011;63501;55.570;37.488;2022-12-10T05:56:23;25.92;;;8.13;;
74935;SDS011;63501;55.570;37.488;2022-12-10T05:58:50;13.57;;;5.70;;
74935;SDS011;63501;55.570;37.488;2022-12-10T06:01:19;12.32;;;4.57;;
74935;SDS011;63501;55.570;37.488;2022-12-10T06:03:46;22.67;;;8.10;;
74935;SDS011;63501;55.570;37.488;2022-12-10T06:06:13;23.15;;;7.65;;
74935;SDS011;63501;55.570;37.488;2022-12-10T06:08:39;26.30;;;7.68;;
74935;SDS011;63501;55.570;37.488;2022-12-10T06:11:06;15.32;;;5.53;;
74935;SDS011;63501;55.570;37.488;2022-12-10T06:13:34;17.23;;;6.22;;
74935;SDS011;63501;55.570;37.488;2022-12-10T06:16:03;20.92;;;7.88;;
74935;SDS011;63501;55.570;37.488;2022-12-10T06:18:34;25.25;;;6.80;;
74935;SDS011;63501;55.570;37.488;2022-12-10T06:21:07;17.63;;;6.18;;
74935;SDS011;63501;55.570;37.488;2022-12-10T06:23:35;19.25;;;6.97;;
74935;SDS011;63501;55.570;37.488;2022-12-10T06:26:10;23.42;;;8.30;;
74935;SDS011;63501;55.570;37.488;2022-12-10T06:28:38;19.73;;;7.13;;
74935;SDS011;63501;55.570;37.488;2022-12-10T06:31:04;15.68;;;6.95;;
74935;SDS011;63501;55.570;37.488;2022-12-10T06:33:29;21.63;;;7.38;;
74935;SDS011;63501;55.570;37.488;2022-12-10T06:35:55;20.70;;;7.55;;
74935;SDS011;63501;55.570;37.488;2022-12-10T06:38:21;21.60;;;7.13;;
74935;SDS011;63501;55.570;37.488;2022-12-10T06:40:47;16.88;;;5.78;;
74935;SDS011;63501;55.570;37.488;2022-12-10T06:43:12;22.60;;;7.30;;
74935;SDS011;63501;55.570;37.488;2022-12-10T06:45:38;19.70;;;7.18;;
74935;SDS011;63501;55.570;37.488;2022-12-10T06:48:05;18.23;;;5.38;;
74935;SDS011;63501;55.570;37.488;2022-12-10T06:50:31;23.38;;;8.55;;
74935;SDS011;63501;55.570;37.488;2022-12-10T06:52:56;20.83;;;6.57;;
74935;SDS011;63501;55.570;37.488;2022-12-10T06:55:22;24.33;;;7.30;;
74935;SDS011;63501;55.570;37.488;2022-12-10T06:57:50;16.80;;;5.80;;
74935;SDS011;63501;55.570;37.488;2022-12-10T07:00:17;18.08;;;5.65;;
74935;SDS011;63501;55.570;37.488;2022-12-10T07:02:42;26.73;;;8.85;;
74935;SDS011;63501;55.570;37.488;2022-12-10T07:05:08;20.58;;;6.70;;
74935;SDS011;63501;55.570;37.488;2022-12-10T07:07:34;26.98;;;8.38;;
74935;SDS011;63501;55.570;37.488;2022-12-10T07:10:00;19.92;;;6.50;;
74935;SDS011;63501;55.570;37.488;2022-12-10T07:12:26;20.15;;;6.88;;
74935;SDS011;63501;55.570;37.488;2022-12-10T07:14:52;24.30;;;8.38;;
74935;SDS011;63501;55.570;37.488;2022-12-10T07:17:17;22.80;;;6.97;;
74935;SDS011;63501;55.570;37.488;2022-12-10T07:19:43;32.15;;;10.38;;
74935;SDS011;63501;55.570;37.488;2022-12-10T07:22:09;33.95;;;11.05;;
74935;SDS011;63501;55.570;37.488;2022-12-10T07:24:35;13.57;;;4.88;;
74935;SDS011;63501;55.570;37.488;2022-12-10T07:27:03;22.70;;;7.10;;
74935;SDS011;63501;55.570;37.488;2022-12-10T07:29:30;25.08;;;8.15;;
74935;SDS011;63501;55.570;37.488;2022-12-10T07:31:55;33.38;;;10.52;;
74935;SDS011;63501;55.570;37.488;2022-12-10T07:34:21;28.70;;;9.52;;
74935;SDS011;63501;55.570;37.488;2022-12-10T07:36:47;20.08;;;6.88;;
74935;SDS011;63501;55.570;37.488;2022-12-10T07:39:12;21.88;;;6.63;;
74935;SDS011;63501;55.570;37.488;2022-12-10T07:41:47;22.50;;;8.02;;
74935;SDS011;63501;55.570;37.488;2022-12-10T07:44:17;25.70;;;7.63;;
74935;SDS011;63501;55.570;37.488;2022-12-10T07:46:48;26.63;;;8.02;;
74935;SDS011;63501;55.570;37.488;2022-12-10T07:49:15;21.02;;;7.50;;
74935;SDS011;63501;55.570;37.488;2022-12-10T07:51:44;21.13;;;7.43;;
74935;SDS011;63501;55.570;37.488;2022-12-10T07:54:14;17.85;;;6.97;;
74935;SDS011;63501;55.570;37.488;2022-12-10T07:56:40;12.13;;;3.63;;
74935;SDS011;63501;55.570;37.488;2022-12-10T07:59:06;13.73;;;4.78;;
74935;SDS011;63501;55.570;37.488;2022-12-10T08:01:32;17.60;;;5.85;;
74935;SDS011;63501;55.570;37.488;2022-12-10T08:03:58;27.80;;;8.70;;
74935;SDS011;63501;55.570;37.488;2022-12-10T08:06:24;20.40;;;6.30;;
74935;SDS011;63501;55.570;37.488;2022-12-10T08:08:51;22.58;;;7.13;;
74935;SDS011;63501;55.570;37.488;2022-12-10T08:11:18;20.40;;;6.93;;
74935;SDS011;63501;55.570;37.488;2022-12-10T08:13:45;15.82;;;5.03;;
74935;SDS011;63501;55.570;37.488;2022-12-10T08:16:15;27.38;;;8.68;;
74935;SDS011;63501;55.570;37.488;2022-12-10T08:18:43;20.30;;;6.15;;
74935;SDS011;63501;55.570;37.488;2022-12-10T08:21:10;23.65;;;8.18;;
74935;SDS011;63501;55.570;37.488;2022-12-10T08:26:07;23.58;;;6.78;;
74935;SDS011;63501;55.570;37.488;2022-12-10T08:28:35;17.88;;;6.43;;
74935;SDS011;63501;55.570;37.488;2022-12-10T08:31:01;18.75;;;7.30;;
74935;SDS011;63501;55.570;37.488;2022-12-10T08:33:28;21.77;;;7.20;;
74935;SDS011;63501;55.570;37.488;2022-12-10T08:35:56;16.85;;;5.57;;
74935;SDS011;63501;55.570;37.488;2022-12-10T08:38:26;30.30;;;8.82;;
74935;SDS011;63501;55.570;37.488;2022-12-10T08:40:52;17.35;;;5.18;;
74935;SDS011;63501;55.570;37.488;2022-12-10T08:43:18;28.73;;;8.95;;
74935;SDS011;63501;55.570;37.488;2022-12-10T08:45:44;17.70;;;6.38;;
74935;SDS011;63501;55.570;37.488;2022-12-10T08:48:10;33.92;;;9.77;;
74935;SDS011;63501;55.570;37.488;2022-12-10T08:50:36;21.92;;;6.68;;
74935;SDS011;63501;55.570;37.488;2022-12-10T08:53:02;16.33;;;6.68;;
74935;SDS011;63501;55.570;37.488;2022-12-10T08:55:28;22.20;;;5.57;;
74935;SDS011;63501;55.570;37.488;2022-12-10T08:57:53;23.52;;;7.70;;
74935;SDS011;63501;55.570;37.488;2022-12-10T09:00:19;23.95;;;7.75;;
74935;SDS011;63501;55.570;37.488;2022-12-10T09:02:45;33.97;;;9.82;;
74935;SDS011;63501;55.570;37.488;2022-12-10T09:05:11;28.63;;;9.77;;
74935;SDS011;63501;55.570;37.488;2022-12-10T09:07:37;25.17;;;8.45;;
74935;SDS011;63501;55.570;37.488;2022-12-10T09:10:03;27.95;;;8.80;;
74935;SDS011;63501;55.570;37.488;2022-12-10T09:12:29;28.20;;;8.88;;
74935;SDS011;63501;55.570;37.488;2022-12-10T09:14:54;19.90;;;7.13;;
74935;SDS011;63501;55.570;37.488;2022-12-10T09:17:21;24.98;;;7.47;;
74935;SDS011;63501;55.570;37.488;2022-12-10T09:19:47;31.10;;;9.57;;
74935;SDS011;63501;55.570;37.488;2022-12-10T09:22:12;25.58;;;7.53;;
74935;SDS011;63501;55.570;37.488;2022-12-10T09:24:38;14.57;;;4.03;;
74935;SDS011;63501;55.570;37.488;2022-12-10T09:27:04;22.55;;;7.22;;
74935;SDS011;63501;55.570;37.488;2022-12-10T09:29:29;26.73;;;7.47;;
74935;SDS011;63501;55.570;37.488;2022-12-10T09:31:55;20.15;;;5.38;;
74935;SDS011;63501;55.570;37.488;2022-12-10T09:34:20;29.00;;;10.10;;
74935;SDS011;63501;55.570;37.488;2022-12-10T09:36:46;19.23;;;6.05;;
74935;SDS011;63501;55.570;37.488;2022-12-10T09:39:12;25.42;;;7.13;;
74935;SDS011;63501;55.570;37.488;2022-12-10T09:47:10;14.98;;;4.88;;
74935;SDS011;63501;55.570;37.488;2022-12-10T09:49:39;25.65;;;7.07;;
74935;SDS011;63501;55.570;37.488;2022-12-10T09:52:29;11.38;;;4.43;;
74935;SDS011;63501;55.570;37.488;2022-12-10T09:55:04;22.13;;;6.20;;
74935;SDS011;63501;55.570;37.488;2022-12-10T09:57:38;10.20;;;3.53;;
74935;SDS011;63501;55.570;37.488;2022-12-10T10:02:42;20.65;;;6.97;;
74935;SDS011;63501;55.570;37.488;2022-12-10T10:07:35;22.63;;;7.43;;
74935;SDS011;63501;55.570;37.488;2022-12-10T10:10:06;19.42;;;5.97;;
74935;SDS011;63501;55.570;37.488;2022-12-10T10:12:41;21.77;;;6.57;;
74935;SDS011;63501;55.570;37.488;2022-12-10T10:15:16;18.95;;;5.03;;
74935;SDS011;63501;55.570;37.488;2022-12-10T10:17:47;20.90;;;6.93;;
74935;SDS011;63501;55.570;37.488;2022-12-10T10:20:15;16.27;;;5.68;;
74935;SDS011;63501;55.570;37.488;2022-12-10T10:22:41;17.73;;;5.90;;
74935;SDS011;63501;55.570;37.488;2022-12-10T10:25:13;18.33;;;5.10;;
74935;SDS011;63501;55.570;37.488;2022-12-10T10:27:40;21.80;;;7.07;;
74935;SDS011;63501;55.570;37.488;2022-12-10T10:30:06;19.83;;;6.22;;
74935;SDS011;63501;55.570;37.488;2022-12-10T10:35:04;28.52;;;9.40;;
74935;SDS011;63501;55.570;37.488;2022-12-10T10:37:39;19.95;;;6.93;;
74935;SDS011;63501;55.570;37.488;2022-12-10T10:40:06;16.27;;;5.30;;
74935;SDS011;63501;55.570;37.488;2022-12-10T10:43:01;15.30;;;5.05;;
74935;SDS011;63501;55.570;37.488;2022-12-10T10:45:31;23.05;;;6.82;;
74935;SDS011;63501;55.570;37.488;2022-12-10T10:48:11;13.15;;;4.60;;
74935;SDS011;63501;55.570;37.488;2022-12-10T10:50:40;17.48;;;5.72;;
74935;SDS011;63501;55.570;37.488;2022-12-10T10:53:25;12.63;;;4.25;;
74935;SDS011;63501;55.570;37.488;2022-12-10T10:55:51;16.63;;;5.43;;
74935;SDS011;63501;55.570;37.488;2022-12-10T10:58:19;18.20;;;5.55;;
74935;SDS011;63501;55.570;37.488;2022-12-10T11:00:56;15.27;;;4.95;;
74935;SDS011;63501;55.570;37.488;2022-12-10T11:03:25;23.42;;;7.38;;
74935;SDS011;63501;55.570;37.488;2022-12-10T11:05:53;15.77;;;5.15;;
74935;SDS011;63501;55.570;37.488;2022-12-10T11:08:21;20.65;;;6.57;;
74935;SDS011;63501;55.570;37.488;2022-12-10T11:10:51;21.65;;;5.95;;
74935;SDS011;63501;55.570;37.488;2022-12-10T11:13:27;27.60;;;8.20;;
74935;SDS011;63501;55.570;37.488;2022-12-10T11:18:25;21.42;;;6.32;;
74935;SDS011;63501;55.570;37.488;2022-12-10T11:21:05;19.08;;;6.45;;
74935;SDS011;63501;55.570;37.488;2022-12-10T11:23:45;19.88;;;6.53;;
74935;SDS011;63501;55.570;37.488;2022-12-10T11:39:44;16.67;;;5.60;;
74935;SDS011;63501;55.570;37.488;2022-12-10T11:47:35;12.40;;;3.95;;
74935;SDS011;63501;55.570;37.488;2022-12-10T12:14:53;16.60;;;6.10;;
74935;SDS011;63501;55.570;37.488;2022-12-10T12:17:24;16.35;;;6.72;;
74935;SDS011;63501;55.570;37.488;2022-12-10T12:20:04;22.45;;;6.88;;
74935;SDS011;63501;55.570;37.488;2022-12-10T12:22:33;25.13;;;8.50;;
74935;SDS011;63501;55.570;37.488;2022-12-10T12:25:05;18.17;;;6.88;;
74935;SDS011;63501;55.570;37.488;2022-12-10T12:27:42;15.13;;;5.97;;
74935;SDS011;63501;55.570;37.488;2022-12-10T12:30:16;15.98;;;6.30;;
74935;SDS011;63501;55.570;37.488;2022-12-10T12:32:49;29.92;;;10.68;;
74935;SDS011;63501;55.570;37.488;2022-12-10T12:35:25;23.80;;;8.13;;
74935;SDS011;63501;55.570;37.488;2022-12-10T12:38:23;25.08;;;9.57;;
74935;SDS011;63501;55.570;37.488;2022-12-10T12:46:09;16.75;;;6.53;;
74935;SDS011;63501;55.570;37.488;2022-12-10T12:48:46;21.25;;;6.72;;
74935;SDS011;63501;55.570;37.488;2022-12-10T12:54:03;16.38;;;5.88;;
74935;SDS011;63501;55.570;37.488;2022-12-10T13:04:46;12.02;;;4.70;;
74935;SDS011;63501;55.570;37.488;2022-12-10T13:12:45;13.70;;;4.47;;
74935;SDS011;63501;55.570;37.488;2022-12-10T13:15:35;21.58;;;9.13;;
74935;SDS011;63501;55.570;37.488;2022-12-10T13:20:44;25.50;;;8.35;;
74935;SDS011;63501;55.570;37.488;2022-12-10T13:28:22;9.57;;;4.00;;
74935;SDS011;63501;55.570;37.488;2022-12-10T13:31:08;24.30;;;8.27;;
74935;SDS011;63501;55.570;37.488;2022-12-10T13:33:47;18.08;;;6.25;;
74935;SDS011;63501;55.570;37.488;2022-12-10T13:41:32;18.08;;;6.68;;
74935;SDS011;63501;55.570;37.488;2022-12-10T13:47:25;18.67;;;6.30;;
74935;SDS011;63501;55.570;37.488;2022-12-10T13:52:36;9.43;;;4.03;;
74935;SDS011;63501;55.570;37.488;2022-12-10T13:55:46;11.75;;;4.40;;
74935;SDS011;63501;55.570;37.488;2022-12-10T14:01:02;12.10;;;4.18;;
74935;SDS011;63501;55.570;37.488;2022-12-10T14:06:39;13.27;;;5.25;;
74935;SDS011;63501;55.570;37.488;2022-12-10T14:14:54;9.40;;;3.72;;
74935;SDS011;63501;55.570;37.488;2022-12-10T14:17:24;10.00;;;4.30;;
74935;SDS011;63501;55.570;37.488;2022-12-10T14:20:03;16.30;;;6.05;;
74935;SDS011;63501;55.570;37.488;2022-12-10T14:22:35;11.50;;;4.32;;
74935;SDS011;63501;55.570;37.488;2022-12-10T14:25:05;12.88;;;5.35;;
74935;SDS011;63501;55.570;37.488;2022-12-10T14:27:38;12.52;;;4.72;;
74935;SDS011;63501;55.570;37.488;2022-12-10T14:30:06;14.07;;;5.45;;
74935;SDS011;63501;55.570;37.488;2022-12-10T14:32:49;15.70;;;6.85;;
74935;SDS011;63501;55.570;37.488;2022-12-10T14:35:20;10.77;;;3.90;;
74935;SDS011;63501;55.570;37.488;2022-12-10T14:37:49;9.88;;;4.15;;
74935;SDS011;63501;55.570;37.488;2022-12-10T14:40:21;14.38;;;5.75;;
74935;SDS011;63501;55.570;37.488;2022-12-10T14:42:50;9.93;;;4.15;;
74935;SDS011;63501;55.570;37.488;2022-12-10T14:45:22;10.00;;;3.90;;
74935;SDS011;63501;55.570;37.488;2022-12-10T14:47:48;12.05;;;5.55;;
74935;SDS011;63501;55.570;37.488;2022-12-10T14:50:14;11.57;;;4.07;;
74935;SDS011;63501;55.570;37.488;2022-12-10T14:52:42;11.43;;;4.85;;
74935;SDS011;63501;55.570;37.488;2022-12-10T14:55:17;11.73;;;4.45;;
74935;SDS011;63501;55.570;37.488;2022-12-10T14:58:09;12.77;;;4.88;;
74935;SDS011;63501;55.570;37.488;2022-12-10T15:00:39;9.63;;;4.22;;
74935;SDS011;63501;55.570;37.488;2022-12-10T15:03:09;8.27;;;4.07;;
74935;SDS011;63501;55.570;37.488;2022-12-10T15:05:36;10.52;;;4.75;;
74935;SDS011;63501;55.570;37.488;2022-12-10T15:10:36;11.57;;;4.15;;
74935;SDS011;63501;55.570;37.488;2022-12-10T15:13:04;11.70;;;4.32;;
74935;SDS011;63501;55.570;37.488;2022-12-10T15:15:33;9.13;;;3.63;;
74935;SDS011;63501;55.570;37.488;2022-12-10T15:23:30;10.30;;;4.38;;
74935;SDS011;63501;55.570;37.488;2022-12-10T15:26:00;7.47;;;3.10;;
74935;SDS011;63501;55.570;37.488;2022-12-10T15:28:30;10.40;;;4.45;;
74935;SDS011;63501;55.570;37.488;2022-12-10T15:33:45;11.98;;;5.70;;
74935;SDS011;63501;55.570;37.488;2022-12-10T15:36:22;10.15;;;4.72;;
74935;SDS011;63501;55.570;37.488;2022-12-10T15:38:50;8.25;;;4.38;;
74935;SDS011;63501;55.570;37.488;2022-12-10T15:44:03;11.52;;;4.28;;
74935;SDS011;63501;55.570;37.488;2022-12-10T15:46:31;14.70;;;5.82;;
74935;SDS011;63501;55.570;37.488;2022-12-10T15:48:57;15.73;;;6.63;;
74935;SDS011;63501;55.570;37.488;2022-12-10T15:51:23;12.90;;;5.65;;
74935;SDS011;63501;55.570;37.488;2022-12-10T15:53:50;11.02;;;4.30;;
74935;SDS011;63501;55.570;37.488;2022-12-10T15:56:15;8.95;;;3.92;;
74935;SDS011;63501;55.570;37.488;2022-12-10T15:58:41;10.10;;;4.97;;
74935;SDS011;63501;55.570;37.488;2022-12-10T16:01:08;10.85;;;4.95;;
74935;SDS011;63501;55.570;37.488;2022-12-10T16:03:38;10.35;;;4.88;;
74935;SDS011;63501;55.570;37.488;2022-12-10T16:06:06;12.52;;;5.63;;
74935;SDS011;63501;55.570;37.488;2022-12-10T16:08:31;10.63;;;4.63;;
74935;SDS011;63501;55.570;37.488;2022-12-10T16:11:00;12.50;;;5.75;;
74935;SDS011;63501;55.570;37.488;2022-12-10T16:13:34;13.80;;;6.43;;
74935;SDS011;63501;55.570;37.488;2022-12-10T16:16:07;11.88;;;5.72;;
74935;SDS011;63501;55.570;37.488;2022-12-10T16:18:34;11.05;;;5.53;;
74935;SDS011;63501;55.570;37.488;2022-12-10T16:21:04;7.78;;;3.85;;
74935;SDS011;63501;55.570;37.488;2022-12-10T16:23:31;6.72;;;3.97;;
74935;SDS011;63501;55.570;37.488;2022-12-10T16:25:58;9.27;;;4.70;;
74935;SDS011;63501;55.570;37.488;2022-12-10T16:28:24;8.88;;;4.07;;
74935;SDS011;63501;55.570;37.488;2022-12-10T16:30:51;6.88;;;3.33;;
74935;SDS011;63501;55.570;37.488;2022-12-10T16:33:22;6.40;;;3.28;;
74935;SDS011;63501;55.570;37.488;2022-12-10T16:35:50;6.53;;;3.20;;
74935;SDS011;63501;55.570;37.488;2022-12-10T16:38:16;7.35;;;3.15;;
74935;SDS011;63501;55.570;37.488;2022-12-10T16:40:44;7.05;;;3.63;;
74935;SDS011;63501;55.570;37.488;2022-12-10T16:43:14;8.15;;;3.22;;
74935;SDS011;63501;55.570;37.488;2022-12-10T16:45:45;7.65;;;3.97;;
74935;SDS011;63501;55.570;37.488;2022-12-10T16:48:11;8.93;;;4.78;;
74935;SDS011;63501;55.570;37.488;2022-12-10T16:50:37;7.93;;;3.53;;
74935;SDS011;63501;55.570;37.488;2022-12-10T16:53:05;6.05;;;3.28;;
74935;SDS011;63501;55.570;37.488;2022-12-10T16:55:39;6.88;;;3.00;;
74935;SDS011;63501;55.570;37.488;2022-12-10T16:58:08;7.60;;;3.63;;
74935;SDS011;63501;55.570;37.488;2022-12-10T17:00:36;6.85;;;3.03;;
74935;SDS011;63501;55.570;37.488;2022-12-10T17:03:01;5.00;;;2.88;;
74935;SDS011;63501;55.570;37.488;2022-12-10T17:05:35;5.13;;;2.85;;
74935;SDS011;63501;55.570;37.488;2022-12-10T17:08:04;6.57;;;3.22;;
74935;SDS011;63501;55.570;37.488;2022-12-10T17:10:30;5.57;;;2.50;;
74935;SDS011;63501;55.570;37.488;2022-12-10T17:13:14;7.13;;;3.30;;
74935;SDS011;63501;55.570;37.488;2022-12-10T17:15:41;7.65;;;3.80;;